createdAt,value
2017-11-22T00:01:51.632Z,25.80
2017-11-22T00:04:19.901Z,27.30
2017-11-22T00:06:47.971Z,28.87
2017-11-22T00:09:16.033Z,25.67
2017-11-22T00:11:44.022Z,28.97
2017-11-22T00:14:12.091Z,29.00
2017-11-22T00:16:40.072Z,28.07
2017-11-22T00:19:08.514Z,27.57
2017-11-22T00:21:36.484Z,30.07
2017-11-22T00:24:04.426Z,26.93
2017-11-22T00:26:32.397Z,28.40
2017-11-22T00:29:00.590Z,27.00
2017-11-22T00:31:28.576Z,25.27
2017-11-22T00:33:56.801Z,24.83
2017-11-22T00:36:24.754Z,26.37
2017-11-22T00:38:52.716Z,29.33
2017-11-22T00:41:20.708Z,26.97
2017-11-22T00:43:48.669Z,26.10
2017-11-22T00:46:16.756Z,27.47
2017-11-22T00:48:44.753Z,24.03
2017-11-22T00:51:12.696Z,25.13
2017-11-22T00:53:40.663Z,24.73
2017-11-22T00:56:08.632Z,24.90
2017-11-22T00:58:36.585Z,26.13
2017-11-22T01:01:04.575Z,21.73
2017-11-22T01:03:32.540Z,24.80
2017-11-22T01:06:00.631Z,22.20
2017-11-22T01:08:28.604Z,21.17
2017-11-22T01:10:56.575Z,23.37
2017-11-22T01:13:24.526Z,19.50
2017-11-22T01:15:52.567Z,18.50
2017-11-22T01:18:20.537Z,18.67
2017-11-22T01:20:48.531Z,18.83
2017-11-22T01:23:16.560Z,17.00
2017-11-22T01:25:44.593Z,18.07
2017-11-22T01:28:12.561Z,17.20
2017-11-22T01:30:40.633Z,17.03
2017-11-22T01:33:08.634Z,17.97
2017-11-22T01:35:36.649Z,15.07
2017-11-22T01:38:04.614Z,14.27
2017-11-22T01:40:32.974Z,16.20
2017-11-22T01:43:00.955Z,16.97
2017-11-22T01:45:28.894Z,14.23
2017-11-22T01:47:56.886Z,13.90
2017-11-22T01:50:24.926Z,15.53
2017-11-22T01:52:52.959Z,16.97
2017-11-22T01:55:20.963Z,16.80
2017-11-22T01:57:49.453Z,11.80
2017-11-22T02:05:47.401Z,12.90
2017-11-22T02:08:15.632Z,10.83
2017-11-22T02:10:43.699Z,12.00
2017-11-22T02:13:11.860Z,11.97
2017-11-22T02:15:39.828Z,12.47
2017-11-22T02:18:07.801Z,11.73
2017-11-22T02:20:35.754Z,10.70
2017-11-22T02:23:03.728Z,10.83
2017-11-22T02:25:31.747Z,12.07
2017-11-22T02:27:59.713Z,10.80
2017-11-22T02:30:27.685Z,10.07
2017-11-22T02:32:55.634Z,11.20
2017-11-22T02:35:24.177Z,9.40
2017-11-22T02:37:52.155Z,9.20
2017-11-22T02:40:20.100Z,11.77
2017-11-22T02:42:48.114Z,9.33
2017-11-22T02:45:16.060Z,8.43
2017-11-22T02:47:44.079Z,9.00
2017-11-22T02:50:12.048Z,9.00
2017-11-22T02:52:39.979Z,9.33
2017-11-22T02:55:07.950Z,8.87
2017-11-22T02:57:35.976Z,10.70
2017-11-22T03:00:03.965Z,6.77
2017-11-22T03:02:31.919Z,8.83
2017-11-22T03:04:59.853Z,6.57
2017-11-22T03:07:28.430Z,7.77
2017-11-22T03:09:56.374Z,6.80
2017-11-22T03:12:24.328Z,6.83
2017-11-22T03:14:52.284Z,7.47
2017-11-22T03:17:20.222Z,6.90
2017-11-22T03:19:48.279Z,7.17
2017-11-22T03:22:16.228Z,8.70
2017-11-22T03:24:44.239Z,6.30
2017-11-22T03:27:12.260Z,6.63
2017-11-22T03:29:40.207Z,5.97
2017-11-22T03:32:08.180Z,6.03
2017-11-22T03:34:36.219Z,6.97
2017-11-22T03:37:04.239Z,9.17
2017-11-22T03:42:06.602Z,6.13
2017-11-22T03:44:34.659Z,6.37
2017-11-22T03:47:02.610Z,6.43
2017-11-22T03:49:31.379Z,7.03
2017-11-22T03:52:04.898Z,6.40
2017-11-22T03:54:32.939Z,9.03
2017-11-22T03:57:00.868Z,5.67
2017-11-22T03:59:28.971Z,8.33
2017-11-22T04:01:57.859Z,9.43
2017-11-22T04:04:27.774Z,9.20
2017-11-22T04:06:55.721Z,14.73
2017-11-22T04:09:23.712Z,13.63
2017-11-22T04:11:51.651Z,19.23
2017-11-22T04:14:19.618Z,18.80
2017-11-22T04:16:47.628Z,22.70
2017-11-22T04:19:21.237Z,26.63
2017-11-22T04:21:49.233Z,29.97
2017-11-22T04:24:17.191Z,26.60
2017-11-22T04:26:45.149Z,34.73
2017-11-22T04:29:13.190Z,42.13
2017-11-22T04:31:41.150Z,43.93
2017-11-22T04:34:09.122Z,35.93
2017-11-22T04:36:37.087Z,48.47
2017-11-22T04:39:05.056Z,53.63
2017-11-22T04:41:33.000Z,58.00
2017-11-22T04:44:00.966Z,62.93
2017-11-22T04:46:28.928Z,61.57
2017-11-22T04:48:56.936Z,69.37
2017-11-22T04:51:24.952Z,69.60
2017-11-22T04:53:52.904Z,74.37
2017-11-22T04:56:20.859Z,79.17
2017-11-22T04:58:48.831Z,77.97
2017-11-22T05:01:16.802Z,80.70
2017-11-22T05:03:44.768Z,75.43
2017-11-22T05:06:12.726Z,76.07
2017-11-22T05:08:40.691Z,86.77
2017-11-22T05:11:08.632Z,78.43
2017-11-22T05:13:36.597Z,86.80
2017-11-22T05:16:04.556Z,77.37
2017-11-22T05:18:32.542Z,83.70
2017-11-22T05:21:00.648Z,82.50
2017-11-22T05:23:28.682Z,78.83
2017-11-22T05:25:56.641Z,86.27
2017-11-22T05:28:24.587Z,83.63
2017-11-22T05:30:52.572Z,89.90
2017-11-22T05:33:21.155Z,86.00
2017-11-22T05:35:49.136Z,78.93
2017-11-22T05:38:17.428Z,75.57
2017-11-22T05:40:45.411Z,85.00
2017-11-22T05:43:13.402Z,90.00
2017-11-22T05:45:41.375Z,79.47
2017-11-22T05:48:09.424Z,78.90
2017-11-22T05:50:37.377Z,89.90
2017-11-22T05:53:05.350Z,77.57
2017-11-22T05:55:33.315Z,78.83
2017-11-22T05:58:01.328Z,73.43
2017-11-22T06:00:29.323Z,67.20
2017-11-22T06:02:57.339Z,77.43
2017-11-22T06:05:25.284Z,68.47
2017-11-22T06:07:53.231Z,63.73
2017-11-22T06:10:21.245Z,59.57
2017-11-22T06:12:49.216Z,55.37
2017-11-22T06:15:17.160Z,56.47
2017-11-22T06:17:45.108Z,55.43
2017-11-22T06:20:13.400Z,53.10
2017-11-22T06:22:41.404Z,51.83
2017-11-22T06:25:09.368Z,47.73
2017-11-22T06:27:37.344Z,49.70
2017-11-22T06:32:57.392Z,41.63
2017-11-22T06:35:25.313Z,41.57
2017-11-22T06:37:53.319Z,38.93
2017-11-22T06:40:21.293Z,48.10
2017-11-22T06:42:50.146Z,37.93
2017-11-22T06:45:18.124Z,43.60
2017-11-22T06:47:46.125Z,43.03
2017-11-22T06:50:14.158Z,40.47
2017-11-22T06:52:42.164Z,36.80
2017-11-22T06:55:10.115Z,38.53
2017-11-22T06:57:38.115Z,36.07
2017-11-22T07:00:06.109Z,35.87
2017-11-22T07:02:39.638Z,34.07
2017-11-22T07:05:07.638Z,35.83
2017-11-22T07:07:35.887Z,28.87
2017-11-22T07:10:03.863Z,28.00
2017-11-22T07:12:31.801Z,29.17
2017-11-22T07:15:01.528Z,31.40
2017-11-22T07:17:30.281Z,27.20
2017-11-22T07:19:58.217Z,29.20
2017-11-22T07:22:26.172Z,29.63
2017-11-22T07:24:54.226Z,30.23
2017-11-22T07:27:22.141Z,27.93
2017-11-22T07:29:50.166Z,25.07
2017-11-22T07:32:18.201Z,28.53
2017-11-22T07:34:46.120Z,24.03
2017-11-22T07:37:20.251Z,22.57
2017-11-22T07:39:48.372Z,23.20
2017-11-22T07:42:16.329Z,26.17
2017-11-22T07:44:44.295Z,23.47
2017-11-22T07:47:12.267Z,23.87
2017-11-22T07:49:40.282Z,21.47
2017-11-22T07:52:13.840Z,21.33
2017-11-22T07:54:41.777Z,24.27
2017-11-22T07:57:10.593Z,22.83
2017-11-22T07:59:38.629Z,23.03
2017-11-22T08:02:06.554Z,24.27
2017-11-22T08:04:34.861Z,24.40
2017-11-22T08:07:02.799Z,23.47
2017-11-22T08:09:30.771Z,23.50
2017-11-22T08:11:58.765Z,24.67
2017-11-22T08:14:26.920Z,23.27
2017-11-22T08:16:55.153Z,24.73
2017-11-22T08:19:23.152Z,25.37
2017-11-22T08:21:51.126Z,26.53
2017-11-22T08:24:19.103Z,24.73
2017-11-22T08:26:47.115Z,25.30
2017-11-22T08:29:15.082Z,23.10
2017-11-22T08:31:44.083Z,26.17
2017-11-22T08:34:12.053Z,25.60
2017-11-22T08:36:40.069Z,26.77
2017-11-22T08:39:08.645Z,26.70
2017-11-22T08:41:36.629Z,29.83
2017-11-22T08:44:06.539Z,23.23
2017-11-22T08:46:34.568Z,25.93
2017-11-22T08:49:02.533Z,26.10
2017-11-22T08:51:30.507Z,25.40
2017-11-22T08:57:00.039Z,25.17
2017-11-22T08:59:27.984Z,27.33
2017-11-22T09:01:56.113Z,26.67
2017-11-22T09:04:24.050Z,24.97
2017-11-22T09:06:52.976Z,25.63
2017-11-22T09:09:21.004Z,23.80
2017-11-22T09:11:49.031Z,24.77
2017-11-22T09:14:17.004Z,24.70
2017-11-22T09:16:44.958Z,23.70
2017-11-22T09:19:12.913Z,22.30
2017-11-22T09:21:40.892Z,25.57
2017-11-22T09:24:13.857Z,24.30
2017-11-22T09:26:41.844Z,23.63
2017-11-22T09:29:09.791Z,21.87
2017-11-22T09:31:43.468Z,24.13
2017-11-22T09:34:17.192Z,25.57
2017-11-22T09:36:45.149Z,23.07
2017-11-22T09:39:13.127Z,21.83
2017-11-22T09:41:41.092Z,22.00
2017-11-22T09:44:09.057Z,23.50
2017-11-22T09:46:37.028Z,20.70
2017-11-22T09:49:05.002Z,20.63
2017-11-22T09:51:32.967Z,20.30
2017-11-22T09:54:00.938Z,20.47
2017-11-22T09:56:29.766Z,18.67
2017-11-22T09:58:57.838Z,19.13
2017-11-22T10:01:25.819Z,18.10
2017-11-22T10:03:53.756Z,18.27
2017-11-22T10:06:21.828Z,17.10
2017-11-22T10:08:49.760Z,17.60
2017-11-22T10:11:17.749Z,17.23
2017-11-22T10:13:45.718Z,17.20
2017-11-22T10:16:13.689Z,17.27
2017-11-22T10:18:41.661Z,17.53
2017-11-22T10:21:09.592Z,17.40
2017-11-22T10:23:37.562Z,17.17
2017-11-22T10:26:05.510Z,17.73
2017-11-22T10:28:33.474Z,19.50
2017-11-22T10:31:01.407Z,17.67
2017-11-22T10:33:35.072Z,17.07
2017-11-22T10:36:03.077Z,16.17
2017-11-22T10:38:31.047Z,17.00
2017-11-22T10:40:59.020Z,18.40
2017-11-22T10:43:26.961Z,20.27
2017-11-22T10:45:54.951Z,19.63
2017-11-22T10:48:22.929Z,20.47
2017-11-22T10:50:50.896Z,19.20
2017-11-22T10:53:18.876Z,19.47
2017-11-22T10:55:46.841Z,20.67
2017-11-22T10:58:14.811Z,21.73
2017-11-22T11:00:42.815Z,20.83
2017-11-22T11:03:10.779Z,22.43
2017-11-22T11:05:38.777Z,20.97
2017-11-22T11:08:06.772Z,19.37
2017-11-22T11:10:35.033Z,19.90
2017-11-22T11:13:03.032Z,21.13
2017-11-22T11:15:31.001Z,32.40
2017-11-22T11:17:58.971Z,19.40
2017-11-22T11:20:27.020Z,18.73
2017-11-22T11:22:55.040Z,19.50
2017-11-22T11:25:22.970Z,19.80
2017-11-22T11:27:50.907Z,20.80
2017-11-22T11:30:18.848Z,19.53
2017-11-22T11:32:46.764Z,18.13
2017-11-22T11:35:14.749Z,19.20
2017-11-22T11:37:42.687Z,18.63
2017-11-22T11:40:11.469Z,22.33
2017-11-22T11:42:39.439Z,19.03
2017-11-22T11:45:07.486Z,18.87
2017-11-22T11:47:35.416Z,17.67
2017-11-22T11:50:03.374Z,18.13
2017-11-22T11:52:31.352Z,16.03
2017-11-22T11:54:59.310Z,17.27
2017-11-22T11:57:27.279Z,17.07
2017-11-22T11:59:56.001Z,17.83
2017-11-22T12:02:24.031Z,18.30
2017-11-22T12:04:52.000Z,18.33
2017-11-22T12:07:19.971Z,16.97
2017-11-22T12:09:47.986Z,18.30
2017-11-22T12:12:16.059Z,16.17
2017-11-22T12:14:44.026Z,18.80
2017-11-22T12:17:11.994Z,16.97
2017-11-22T12:19:39.940Z,17.30
2017-11-22T12:22:13.795Z,16.07
2017-11-22T12:24:41.817Z,17.80
2017-11-22T12:27:09.773Z,19.27
2017-11-22T12:29:37.766Z,16.73
2017-11-22T12:32:05.881Z,16.77
2017-11-22T12:34:33.868Z,15.83
2017-11-22T12:37:01.839Z,18.47
2017-11-22T12:39:29.818Z,17.60
2017-11-22T12:41:57.801Z,17.47
2017-11-22T12:44:25.766Z,16.80
2017-11-22T12:46:53.728Z,19.00
2017-11-22T12:49:21.680Z,17.10
2017-11-22T12:51:49.622Z,17.63
2017-11-22T12:54:17.557Z,15.80
2017-11-22T12:56:45.531Z,16.80
2017-11-22T12:59:13.489Z,18.37
2017-11-22T13:01:41.628Z,16.07
2017-11-22T13:04:09.639Z,18.00
2017-11-22T13:06:37.630Z,16.67
2017-11-22T13:09:05.552Z,18.33
2017-11-22T13:11:39.084Z,17.67
2017-11-22T13:14:07.956Z,17.50
2017-11-22T13:16:35.975Z,17.67
2017-11-22T13:19:04.046Z,18.80
2017-11-22T13:21:31.983Z,18.20
2017-11-22T13:23:59.949Z,20.27
2017-11-22T13:26:27.962Z,21.27
2017-11-22T13:28:55.937Z,20.33
2017-11-22T13:31:23.883Z,17.73
2017-11-22T13:33:51.853Z,19.60
2017-11-22T13:36:19.809Z,18.57
2017-11-22T13:38:47.749Z,26.60
2017-11-22T13:41:15.752Z,19.70
2017-11-22T13:43:43.720Z,18.07
2017-11-22T13:46:12.919Z,16.93
2017-11-22T13:48:40.891Z,17.47
2017-11-22T13:51:08.835Z,16.23
2017-11-22T13:53:36.809Z,15.67
2017-11-22T13:56:04.791Z,16.93
2017-11-22T13:58:32.789Z,16.80
2017-11-22T14:01:02.379Z,16.70
2017-11-22T14:03:30.370Z,17.67
2017-11-22T14:05:58.649Z,15.90
2017-11-22T14:08:26.617Z,15.30
2017-11-22T14:10:55.542Z,15.60
2017-11-22T14:13:24.328Z,14.80
2017-11-22T14:15:52.269Z,15.27
2017-11-22T14:18:20.215Z,16.23
2017-11-22T14:20:48.186Z,15.40
2017-11-22T14:23:16.141Z,15.80
2017-11-22T14:25:44.124Z,16.40
2017-11-22T14:28:12.078Z,15.73
2017-11-22T14:30:40.133Z,15.17
2017-11-22T14:33:08.095Z,14.60
2017-11-22T14:35:36.020Z,16.20
2017-11-22T14:38:04.037Z,16.90
2017-11-22T14:40:32.082Z,16.27
2017-11-22T14:43:00.060Z,18.13
2017-11-22T14:45:28.027Z,17.73
2017-11-22T14:47:55.992Z,16.90
2017-11-22T14:50:24.015Z,16.53
2017-11-22T14:52:52.021Z,19.80
2017-11-22T14:55:19.987Z,18.70
2017-11-22T14:57:47.997Z,17.63
2017-11-22T15:00:16.692Z,18.83
2017-11-22T15:02:44.829Z,20.67
2017-11-22T15:05:12.823Z,19.67
2017-11-22T15:07:40.796Z,22.20
2017-11-22T15:10:09.608Z,21.87
2017-11-22T15:12:37.578Z,21.73
2017-11-22T15:15:05.545Z,22.50
2017-11-22T15:17:34.328Z,23.67
2017-11-22T15:20:02.308Z,24.30
2017-11-22T15:22:30.277Z,24.00
2017-11-22T15:24:58.259Z,24.80
2017-11-22T15:27:26.235Z,23.50
2017-11-22T15:29:54.246Z,22.70
2017-11-22T15:32:22.168Z,23.43
2017-11-22T15:34:50.164Z,23.63
2017-11-22T15:37:18.140Z,24.80
2017-11-22T15:39:46.100Z,25.70
2017-11-22T15:42:14.089Z,27.37
2017-11-22T15:44:42.080Z,25.10
2017-11-22T15:47:10.089Z,24.87
2017-11-22T15:49:38.044Z,25.30
2017-11-22T15:52:06.015Z,25.73
2017-11-22T15:54:33.982Z,27.63
2017-11-22T15:57:01.955Z,27.60
2017-11-22T15:59:30.055Z,28.40
2017-11-22T16:01:58.124Z,29.80
2017-11-22T16:04:26.063Z,29.03
2017-11-22T16:06:54.037Z,32.77
2017-11-22T16:09:22.021Z,30.03
2017-11-22T16:11:50.007Z,32.43
2017-11-22T16:14:17.973Z,34.87
2017-11-22T16:16:45.921Z,34.37
2017-11-22T16:19:13.883Z,35.23
2017-11-22T16:21:41.883Z,34.43
2017-11-22T16:24:09.874Z,36.67
2017-11-22T16:26:37.818Z,35.53
2017-11-22T16:29:05.810Z,37.17
2017-11-22T16:31:34.662Z,37.37
2017-11-22T16:34:02.660Z,40.47
2017-11-22T16:36:30.607Z,37.87
2017-11-22T16:38:58.527Z,37.13
2017-11-22T16:41:26.487Z,36.83
2017-11-22T16:43:54.508Z,37.80
2017-11-22T16:46:22.677Z,39.53
2017-11-22T16:48:50.598Z,35.60
2017-11-22T16:51:18.540Z,38.83
2017-11-22T16:53:46.489Z,36.10
2017-11-22T16:56:14.461Z,38.40
2017-11-22T16:58:42.421Z,35.43
2017-11-22T17:01:10.369Z,35.20
2017-11-22T17:03:38.372Z,37.33
2017-11-22T17:06:06.336Z,35.00
2017-11-22T17:08:34.317Z,36.33
2017-11-22T17:11:02.265Z,36.37
2017-11-22T17:13:30.272Z,35.13
2017-11-22T17:15:58.265Z,37.33
2017-11-22T17:18:26.311Z,38.57
2017-11-22T17:20:54.304Z,35.40
2017-11-22T17:23:23.712Z,36.73
2017-11-22T17:25:52.133Z,36.30
2017-11-22T17:28:20.099Z,35.83
2017-11-22T17:30:48.062Z,36.80
2017-11-22T17:33:16.031Z,43.50
2017-11-22T17:35:44.103Z,34.17
2017-11-22T17:38:12.253Z,37.47
2017-11-22T17:40:40.167Z,34.10
2017-11-22T17:43:08.121Z,36.77
2017-11-22T17:45:36.138Z,37.10
2017-11-22T17:48:04.171Z,32.80
2017-11-22T17:50:32.123Z,38.40
2017-11-22T17:53:00.096Z,35.03
2017-11-22T17:55:28.029Z,33.87
2017-11-22T17:57:56.002Z,33.07
2017-11-22T18:00:24.864Z,34.03
2017-11-22T18:02:53.246Z,33.10
2017-11-22T18:05:21.254Z,33.90
2017-11-22T18:07:49.315Z,33.07
2017-11-22T18:10:19.071Z,33.90
2017-11-22T18:12:48.082Z,32.23
2017-11-22T18:15:16.105Z,33.07
2017-11-22T18:17:44.077Z,33.07
2017-11-22T18:20:12.115Z,34.33
2017-11-22T18:22:40.110Z,31.37
2017-11-22T18:25:08.044Z,31.77
2017-11-22T18:27:35.960Z,32.77
2017-11-22T18:30:03.984Z,36.27
2017-11-22T18:32:31.903Z,36.33
2017-11-22T18:34:59.834Z,31.47
2017-11-22T18:37:27.863Z,31.10
2017-11-22T18:39:55.865Z,29.50
2017-11-22T18:42:23.871Z,30.20
2017-11-22T18:44:51.903Z,30.03
2017-11-22T18:47:19.931Z,29.87
2017-11-22T18:49:48.282Z,29.40
2017-11-22T18:52:16.380Z,30.37
2017-11-22T18:54:44.647Z,28.57
2017-11-22T18:57:12.631Z,30.50
2017-11-22T18:59:40.601Z,28.73
2017-11-22T19:02:08.641Z,26.53
2017-11-22T19:04:36.581Z,28.17
2017-11-22T19:07:04.548Z,26.93
2017-11-22T19:09:32.682Z,26.20
2017-11-22T19:12:01.614Z,25.50
2017-11-22T19:14:30.145Z,25.70
2017-11-22T19:16:58.188Z,28.73
2017-11-22T19:19:26.291Z,27.53
2017-11-22T19:21:54.228Z,23.67
2017-11-22T19:24:22.244Z,23.17
2017-11-22T19:26:50.227Z,25.13
2017-11-22T19:29:26.044Z,24.90
2017-11-22T19:31:54.247Z,25.40
2017-11-22T19:34:22.247Z,27.10
2017-11-22T19:36:50.274Z,24.37
2017-11-22T19:39:18.311Z,26.93
2017-11-22T19:41:46.475Z,24.80
2017-11-22T19:44:14.543Z,25.53
2017-11-22T19:46:42.558Z,25.93
2017-11-22T19:49:15.699Z,25.73
2017-11-22T19:51:47.113Z,25.90
2017-11-22T19:54:17.959Z,22.10
2017-11-22T19:56:46.171Z,23.90
2017-11-22T19:59:14.227Z,22.80
2017-11-22T20:01:42.413Z,25.63
2017-11-22T20:04:10.745Z,28.50
2017-11-22T20:06:38.787Z,29.03
2017-11-22T20:09:06.755Z,24.23
2017-11-22T20:11:34.869Z,23.00
2017-11-22T20:14:02.888Z,25.50
2017-11-22T20:16:31.155Z,22.77
2017-11-22T20:18:59.132Z,22.23
2017-11-22T20:21:27.182Z,23.10
2017-11-22T20:23:55.598Z,24.10
2017-11-22T20:26:23.607Z,22.43
2017-11-22T20:28:51.695Z,22.60
2017-11-22T20:31:19.740Z,21.17
2017-11-22T20:33:47.888Z,21.30
2017-11-22T20:36:16.205Z,20.60
2017-11-22T20:38:44.127Z,22.10
2017-11-22T20:41:12.097Z,21.50
2017-11-22T20:43:40.049Z,20.77
2017-11-22T20:46:07.996Z,20.50
2017-11-22T20:48:35.941Z,21.83
2017-11-22T20:51:03.872Z,22.50
2017-11-22T20:53:31.876Z,24.37
2017-11-22T20:55:59.848Z,22.80
2017-11-22T20:58:27.787Z,33.37
2017-11-22T21:00:55.728Z,22.40
2017-11-22T21:03:23.671Z,22.03
2017-11-22T21:05:51.643Z,23.77
2017-11-22T21:08:19.726Z,21.07
2017-11-22T21:10:47.672Z,20.50
2017-11-22T21:13:15.643Z,21.07
2017-11-22T21:15:45.173Z,26.27
2017-11-22T21:18:13.180Z,22.77
2017-11-22T21:20:41.160Z,20.23
2017-11-22T21:23:09.107Z,19.73
2017-11-22T21:25:37.056Z,21.33
2017-11-22T21:28:04.984Z,21.33
2017-11-22T21:30:32.939Z,19.83
2017-11-22T21:33:00.885Z,21.03
2017-11-22T21:35:28.839Z,21.63
2017-11-22T21:37:56.819Z,20.90
2017-11-22T21:40:24.754Z,22.73
2017-11-22T21:42:52.702Z,21.80
2017-11-22T21:45:20.638Z,21.00
2017-11-22T21:47:48.667Z,21.30
2017-11-22T21:50:18.388Z,22.57
2017-11-22T21:52:47.799Z,23.10
2017-11-22T21:55:15.739Z,19.90
2017-11-22T21:57:43.739Z,25.27
2017-11-22T22:00:11.884Z,21.27
2017-11-22T22:02:39.910Z,21.80
2017-11-22T22:05:07.869Z,21.57
2017-11-22T22:07:35.912Z,22.87
2017-11-22T22:10:04.550Z,19.77
2017-11-22T22:12:33.629Z,23.33
2017-11-22T22:15:01.621Z,28.63
2017-11-22T22:17:29.689Z,20.90
2017-11-22T22:19:57.715Z,21.30
2017-11-22T22:22:25.700Z,23.07
2017-11-22T22:24:53.705Z,21.00
2017-11-22T22:27:21.749Z,22.67
2017-11-22T22:29:49.812Z,19.03
2017-11-22T22:32:17.913Z,21.77
2017-11-22T22:34:46.184Z,20.43
2017-11-22T22:37:14.231Z,18.70
2017-11-22T22:39:42.405Z,20.20
2017-11-22T22:42:11.088Z,20.50
2017-11-22T22:44:40.594Z,19.50
2017-11-22T22:47:08.771Z,20.13
2017-11-22T22:49:36.769Z,18.63
2017-11-22T22:52:04.789Z,21.53
2017-11-22T22:54:32.862Z,18.50
2017-11-22T22:57:01.124Z,17.73
2017-11-22T22:59:29.681Z,18.13
2017-11-22T23:01:57.647Z,20.50
2017-11-22T23:04:25.759Z,18.77
2017-11-22T23:06:53.795Z,17.97
2017-11-22T23:09:21.934Z,19.20
2017-11-22T23:11:49.974Z,17.63
2017-11-22T23:14:17.981Z,19.10
2017-11-22T23:16:46.070Z,19.67
2017-11-22T23:19:14.738Z,17.43
2017-11-22T23:21:43.111Z,18.17
2017-11-22T23:24:11.181Z,20.37
2017-11-22T23:26:39.218Z,18.30
2017-11-22T23:29:09.438Z,17.63
2017-11-22T23:31:37.457Z,18.63
2017-11-22T23:34:05.522Z,18.83
2017-11-22T23:36:33.641Z,16.87
2017-11-22T23:39:01.698Z,18.00
2017-11-22T23:41:29.745Z,19.17
2017-11-22T23:43:57.815Z,22.60
2017-11-22T23:46:25.889Z,19.00
2017-11-22T23:48:53.982Z,18.47
2017-11-22T23:51:22.075Z,18.50
2017-11-22T23:53:50.132Z,17.80
2017-11-22T23:56:18.169Z,19.00
2017-11-22T23:58:46.248Z,19.27
